createdAt,value
2022-10-17T00:04:41.108Z,99463.75
2022-10-17T00:09:44.744Z,99483.00
2022-10-17T00:14:49.736Z,99487.84
2022-10-17T00:19:53.174Z,99489.94
2022-10-17T00:24:56.676Z,99462.28
2022-10-17T00:30:02.540Z,99496.13
2022-10-17T00:35:16.608Z,99231.06
2022-10-17T00:40:20.903Z,99397.81
2022-10-17T00:45:29.596Z,99328.50
2022-10-17T00:50:33.524Z,99453.59
2022-10-17T00:55:39.364Z,99434.91
2022-10-17T01:06:28.444Z,99490.38
2022-10-17T01:11:41.024Z,99474.34
2022-10-17T01:16:52.230Z,99500.31
2022-10-17T01:21:56.940Z,99293.06
2022-10-17T01:27:19.675Z,99495.44
2022-10-17T01:32:29.379Z,99490.31
2022-10-17T01:37:35.331Z,99441.00
2022-10-17T01:42:43.507Z,99409.78
2022-10-17T01:47:51.039Z,99487.78
2022-10-17T01:52:57.170Z,99491.13
2022-10-17T01:58:04.095Z,99361.50
2022-10-17T02:03:13.795Z,99408.13
2022-10-17T02:08:27.119Z,99475.13
2022-10-17T02:13:39.268Z,99504.50
2022-10-17T02:18:59.791Z,99510.66
2022-10-17T02:24:07.432Z,99470.09
2022-10-17T02:29:16.710Z,99516.75
2022-10-17T02:34:26.402Z,99485.13
2022-10-17T02:39:30.446Z,99453.53
2022-10-17T02:44:34.670Z,99502.63
2022-10-17T02:49:42.013Z,99491.13
2022-10-17T02:54:49.582Z,99511.72
2022-10-17T02:59:53.452Z,99525.66
2022-10-17T03:04:59.138Z,99461.41
2022-10-17T03:10:03.482Z,99548.88
2022-10-17T03:15:09.118Z,99383.63
2022-10-17T03:20:15.698Z,99554.47
2022-10-17T03:25:20.549Z,99325.41
2022-10-17T03:30:26.402Z,99412.22
2022-10-17T03:35:32.617Z,99566.28
2022-10-17T03:40:37.415Z,99571.41
2022-10-17T03:45:41.958Z,99570.00
2022-10-17T03:50:47.423Z,99421.94
2022-10-17T03:55:51.454Z,99445.63
2022-10-17T04:00:55.886Z,99346.34
2022-10-17T04:06:02.163Z,99496.47
2022-10-17T04:11:09.297Z,99542.50
2022-10-17T04:16:14.865Z,99566.19
2022-10-17T04:21:29.916Z,99548.41
2022-10-17T04:26:38.089Z,99463.97
2022-10-17T04:31:42.254Z,99568.09
2022-10-17T04:36:57.233Z,99411.25
2022-10-17T04:42:02.885Z,99564.44
2022-10-17T04:47:09.924Z,99550.28
2022-10-17T04:52:17.607Z,99515.88
2022-10-17T04:57:25.261Z,99525.72
2022-10-17T05:02:38.196Z,99516.72
2022-10-17T05:07:44.156Z,99563.94
2022-10-17T05:12:51.629Z,99504.88
2022-10-17T05:24:19.752Z,99587.38
2022-10-17T05:29:36.862Z,99530.28
2022-10-17T05:35:08.499Z,99508.22
2022-10-17T05:40:42.719Z,99420.78
2022-10-17T05:45:48.481Z,99560.72
2022-10-17T05:50:59.956Z,99572.00
2022-10-17T05:56:08.116Z,99576.44
2022-10-17T06:06:51.524Z,99478.16
2022-10-17T06:17:40.735Z,99545.09
2022-10-17T06:22:44.399Z,99617.25
2022-10-17T06:33:03.488Z,99639.81
2022-10-17T06:38:07.427Z,99641.66
2022-10-17T06:43:13.815Z,99630.59
2022-10-17T06:48:45.340Z,99645.59
2022-10-17T06:53:56.602Z,99653.81
2022-10-17T06:59:10.459Z,99665.84
2022-10-17T07:04:17.463Z,99666.66
2022-10-17T07:09:21.188Z,99683.63
2022-10-17T07:14:31.939Z,99661.81
2022-10-17T07:19:37.363Z,99645.53
2022-10-17T07:24:41.045Z,99677.84
2022-10-17T07:29:52.190Z,99693.38
2022-10-17T07:35:16.317Z,99686.69
2022-10-17T07:40:20.061Z,99676.34
2022-10-17T07:45:27.776Z,99699.28
2022-10-17T07:50:33.259Z,99654.19
2022-10-17T07:55:39.009Z,99692.41
2022-10-17T08:00:43.062Z,99675.97
2022-10-17T08:05:49.607Z,99697.19
2022-10-17T08:10:54.369Z,99677.22
2022-10-17T08:16:01.238Z,99679.59
2022-10-17T08:21:08.638Z,99714.81
2022-10-17T08:26:17.506Z,99599.97
2022-10-17T08:31:47.871Z,99716.91
2022-10-17T08:36:54.428Z,99639.88
2022-10-17T08:42:10.459Z,99716.25
2022-10-17T08:53:10.760Z,99721.44
2022-10-17T08:58:16.009Z,99683.22
2022-10-17T09:03:32.949Z,99723.78
2022-10-17T09:08:46.284Z,99715.66
2022-10-17T09:13:59.056Z,99539.16
2022-10-17T09:19:10.440Z,99726.38
2022-10-17T09:24:19.120Z,99728.09
2022-10-17T09:29:29.606Z,99682.91
2022-10-17T09:35:32.449Z,99725.69
2022-10-17T09:40:38.657Z,99718.78
2022-10-17T09:45:50.228Z,99735.53
2022-10-17T09:51:25.680Z,99738.75
2022-10-17T10:04:20.295Z,99725.56
2022-10-17T10:09:26.176Z,99742.63
2022-10-17T10:14:34.516Z,99598.19
2022-10-17T10:19:41.165Z,99728.81
2022-10-17T10:24:45.076Z,99730.03
2022-10-17T10:29:51.547Z,99682.84
2022-10-17T10:34:59.247Z,99699.69
2022-10-17T10:40:04.765Z,99650.66
2022-10-17T10:45:35.972Z,99726.88
2022-10-17T10:50:46.807Z,99721.16
2022-10-17T10:55:52.784Z,99668.19
2022-10-17T11:00:58.482Z,99723.50
2022-10-17T11:06:07.812Z,99666.72
2022-10-17T11:11:18.352Z,99707.47
2022-10-17T11:16:31.048Z,99720.63
2022-10-17T11:21:57.088Z,99722.44
2022-10-17T11:27:02.548Z,99693.28
2022-10-17T11:43:39.729Z,99518.66
2022-10-17T11:48:50.148Z,99695.94
2022-10-17T11:59:35.167Z,99476.78
2022-10-17T12:10:35.618Z,99581.69
2022-10-17T12:15:44.670Z,99673.34
2022-10-17T12:20:57.298Z,99615.44
2022-10-17T12:26:05.282Z,99678.00
2022-10-17T12:31:13.695Z,99675.53
2022-10-17T12:36:38.265Z,99667.44
2022-10-17T12:41:55.476Z,99669.78
2022-10-17T12:53:04.830Z,99662.63
2022-10-17T12:58:14.831Z,99673.09
2022-10-17T13:03:19.758Z,99660.41
2022-10-17T13:08:26.816Z,99665.69
2022-10-17T13:20:00.402Z,99579.22
2022-10-17T13:40:49.066Z,99648.28
2022-10-17T13:52:42.150Z,99538.28
2022-10-17T13:57:45.647Z,99633.03
2022-10-17T14:02:49.554Z,99580.25
2022-10-17T14:08:11.422Z,99655.13
2022-10-17T14:13:23.789Z,99644.50
2022-10-17T14:18:34.834Z,99625.50
2022-10-17T14:23:41.053Z,99641.78
2022-10-17T14:28:46.297Z,99634.28
2022-10-17T14:33:51.112Z,99643.03
2022-10-17T14:38:56.212Z,99656.72
2022-10-17T14:44:01.080Z,99626.78
2022-10-17T14:49:07.532Z,99642.09
2022-10-17T14:54:21.837Z,99648.19
2022-10-17T14:59:52.053Z,99650.22
2022-10-17T15:04:49.292Z,99652.41
2022-10-17T15:09:54.998Z,99628.47
2022-10-17T15:14:58.388Z,99673.59
2022-10-17T15:20:01.739Z,99668.53
2022-10-17T15:25:07.691Z,99641.22
2022-10-17T15:30:21.631Z,99617.28
2022-10-17T15:35:25.932Z,99640.16
2022-10-17T15:40:31.115Z,99634.69
2022-10-17T15:45:35.939Z,99637.47
2022-10-17T15:50:39.381Z,99643.63
2022-10-17T15:55:44.091Z,99640.84
2022-10-17T16:00:47.734Z,99495.88
2022-10-17T16:05:51.103Z,99645.44
2022-10-17T16:10:55.973Z,99641.47
2022-10-17T16:15:59.335Z,99604.41
2022-10-17T16:21:02.648Z,99644.00
2022-10-17T16:26:07.591Z,99571.81
2022-10-17T16:31:21.131Z,99649.66
2022-10-17T16:36:24.644Z,99635.19
2022-10-17T16:41:31.214Z,99648.47
2022-10-17T16:46:35.240Z,99644.69
2022-10-17T16:51:38.760Z,99660.88
2022-10-17T16:56:43.546Z,99616.03
2022-10-17T17:01:48.953Z,99611.25
2022-10-17T17:06:52.378Z,99457.34
2022-10-17T17:11:57.166Z,99649.16
2022-10-17T17:17:00.530Z,99652.00
2022-10-17T17:22:03.941Z,99639.75
2022-10-17T17:27:11.302Z,99638.47
2022-10-17T17:32:16.914Z,99646.09
2022-10-17T17:37:20.300Z,99653.59
2022-10-17T17:42:25.116Z,99561.28
2022-10-17T17:47:30.263Z,99642.66
2022-10-17T17:52:33.974Z,99634.38
2022-10-17T17:57:38.727Z,99639.31
2022-10-17T18:02:44.363Z,99556.16
2022-10-17T18:07:47.958Z,99641.16
2022-10-17T18:13:17.326Z,99631.69
2022-10-17T18:18:20.743Z,99596.19
2022-10-17T18:23:24.550Z,99635.56
2022-10-17T18:28:29.630Z,99591.22
2022-10-17T18:33:33.102Z,99598.91
2022-10-17T18:38:37.073Z,99615.09
2022-10-17T18:43:43.441Z,99592.56
2022-10-17T18:48:48.013Z,99617.31
2022-10-17T18:53:52.967Z,99619.03
2022-10-17T18:58:58.653Z,99624.19
2022-10-17T19:04:02.033Z,99527.03
2022-10-17T19:09:07.237Z,99627.09
2022-10-17T19:14:14.146Z,99619.19
2022-10-17T19:19:22.157Z,99623.91
2022-10-17T19:24:28.824Z,99613.28
2022-10-17T19:29:33.669Z,99594.03
2022-10-17T19:34:37.264Z,99558.78
2022-10-17T19:39:40.708Z,99450.97
2022-10-17T19:52:16.730Z,99623.69
2022-10-17T19:57:47.469Z,99617.16
2022-10-17T20:02:50.913Z,99588.41
2022-10-17T20:07:54.373Z,99615.69
2022-10-17T20:13:47.846Z,99629.69
2022-10-17T20:18:56.405Z,99609.25
2022-10-17T20:24:05.977Z,99434.72
2022-10-17T20:29:12.257Z,99572.41
2022-10-17T20:34:22.621Z,99618.31
2022-10-17T20:39:51.220Z,99618.09
2022-10-17T20:45:00.499Z,99527.72
2022-10-17T20:50:18.433Z,99573.78
2022-10-17T20:55:22.524Z,99611.19
2022-10-17T21:00:26.568Z,99523.03
2022-10-17T23:01:48.911Z,99531.44
2022-10-17T23:06:53.087Z,99572.59
2022-10-17T23:11:57.622Z,99262.41
2022-10-17T23:17:03.124Z,99585.72
2022-10-17T23:22:08.930Z,99575.75
2022-10-17T23:27:15.123Z,99329.34
2022-10-17T23:32:23.855Z,99477.91
2022-10-17T23:37:31.654Z,99356.38
2022-10-17T23:42:37.584Z,99465.16
2022-10-17T23:47:44.771Z,99464.66
